createdAt,value
2022-10-18T00:00:30.130Z,99549.97
2022-10-18T00:01:33.088Z,99546.44
2022-10-18T00:02:36.044Z,99550.94
2022-10-18T00:03:39.627Z,99542.84
2022-10-18T00:04:42.643Z,99541.00
2022-10-18T00:05:45.507Z,99544.16
2022-10-18T00:06:48.535Z,99558.13
2022-10-18T00:07:51.382Z,99549.69
2022-10-18T00:08:54.228Z,99546.81
2022-10-18T00:09:57.120Z,99547.94
2022-10-18T00:11:00.207Z,99541.41
2022-10-18T00:12:03.201Z,99535.53
2022-10-18T00:13:06.106Z,99539.47
2022-10-18T00:14:09.569Z,99538.91
2022-10-18T00:15:12.680Z,99544.66
2022-10-18T00:16:17.566Z,99534.16
2022-10-18T00:17:20.474Z,99532.09
2022-10-18T00:18:24.063Z,99529.25
2022-10-18T00:19:29.198Z,99537.84
2022-10-18T00:20:32.480Z,99534.16
2022-10-18T00:21:35.511Z,99531.56
2022-10-18T00:22:40.578Z,99535.28
2022-10-18T00:23:44.255Z,99530.03
2022-10-18T00:24:47.230Z,99533.34
2022-10-18T00:25:50.120Z,99530.56
2022-10-18T00:26:53.161Z,99532.72
2022-10-18T00:27:55.932Z,99537.16
2022-10-18T00:29:04.588Z,99530.03
2022-10-18T00:30:07.887Z,99532.44
2022-10-18T00:31:19.461Z,99529.81
2022-10-18T00:32:22.497Z,99527.22
2022-10-18T00:33:25.362Z,99532.72
2022-10-18T00:34:28.156Z,99527.09
2022-10-18T00:35:31.094Z,99526.31
2022-10-18T00:36:35.162Z,99527.91
2022-10-18T00:37:37.997Z,99524.12
2022-10-18T00:39:01.583Z,99522.53
2022-10-18T00:40:05.275Z,99525.44
2022-10-18T00:41:10.616Z,99519.69
2022-10-18T00:42:22.125Z,99525.81
2022-10-18T00:43:24.779Z,99519.25
2022-10-18T00:44:28.313Z,99520.34
2022-10-18T00:45:31.102Z,99529.28
2022-10-18T00:46:38.301Z,99527.50
2022-10-18T00:47:41.603Z,99521.50
2022-10-18T00:48:44.591Z,99519.41
2022-10-18T00:49:53.244Z,99525.16
2022-10-18T00:50:56.010Z,99524.62
2022-10-18T00:52:03.160Z,99522.25
2022-10-18T00:53:10.329Z,99519.91
2022-10-18T00:54:19.194Z,99522.03
2022-10-18T00:55:22.454Z,99520.50
2022-10-18T00:56:25.908Z,99513.16
2022-10-18T00:57:32.307Z,99515.19
2022-10-18T00:58:36.351Z,99508.91
2022-10-18T00:59:39.509Z,99513.69
2022-10-18T01:00:42.748Z,99511.06
2022-10-18T01:01:47.398Z,99517.69
2022-10-18T01:02:52.234Z,99513.16
2022-10-18T01:03:56.047Z,99512.38
2022-10-18T01:04:58.704Z,99508.47
2022-10-18T01:06:01.339Z,99516.88
2022-10-18T01:07:22.983Z,99507.44
2022-10-18T01:08:34.812Z,99510.59
2022-10-18T01:10:09.612Z,99505.34
2022-10-18T01:11:15.852Z,99508.13
2022-10-18T01:12:41.650Z,99504.72
2022-10-18T01:13:47.129Z,99499.19
2022-10-18T01:15:14.104Z,99503.22
2022-10-18T01:16:44.131Z,99497.94
2022-10-18T01:18:06.414Z,99495.25
2022-10-18T01:19:17.613Z,99497.41
2022-10-18T01:20:48.652Z,99492.91
2022-10-18T01:21:53.977Z,99484.97
2022-10-18T01:23:12.006Z,99480.00
2022-10-18T01:24:32.904Z,99484.72
2022-10-18T01:25:57.330Z,99480.91
2022-10-18T01:27:24.369Z,99480.41
2022-10-18T01:28:28.423Z,99476.72
2022-10-18T01:30:04.441Z,99476.69
2022-10-18T01:31:21.457Z,99472.12
2022-10-18T01:32:31.414Z,99481.34
2022-10-18T01:33:49.515Z,99474.97
2022-10-18T01:34:56.172Z,99477.91
2022-10-18T01:36:28.181Z,99473.97
2022-10-18T01:37:33.296Z,99473.25
2022-10-18T01:38:38.810Z,99476.16
2022-10-18T01:39:45.451Z,99477.25
2022-10-18T01:40:50.581Z,99471.69
2022-10-18T01:41:54.750Z,99475.06
2022-10-18T01:42:57.678Z,99473.56
2022-10-18T01:44:03.776Z,99475.69
2022-10-18T01:45:08.773Z,99464.91
2022-10-18T01:46:16.178Z,99471.44
2022-10-18T01:47:20.532Z,99466.78
2022-10-18T01:48:24.132Z,99468.72
2022-10-18T01:49:27.573Z,99469.16
2022-10-18T01:50:32.663Z,99459.41
2022-10-18T01:51:35.637Z,99455.47
2022-10-18T01:52:51.250Z,99459.19
2022-10-18T01:53:54.475Z,99448.06
2022-10-18T01:54:59.012Z,99453.28
2022-10-18T01:56:19.891Z,99454.34
2022-10-18T01:57:42.169Z,99456.50
2022-10-18T01:58:57.288Z,99459.41
2022-10-18T02:00:19.389Z,99455.44
2022-10-18T02:01:46.006Z,99448.25
2022-10-18T02:02:56.805Z,99452.75
2022-10-18T02:04:11.739Z,99448.03
2022-10-18T02:05:33.530Z,99447.25
2022-10-18T02:06:44.144Z,99447.34
2022-10-18T02:08:22.944Z,99442.88
2022-10-18T02:09:43.175Z,99436.28
2022-10-18T02:10:57.048Z,99447.59
2022-10-18T02:12:02.282Z,99442.06
2022-10-18T02:13:05.329Z,99446.59
2022-10-18T02:14:11.572Z,99438.34
2022-10-18T02:15:19.489Z,99442.06
2022-10-18T02:16:45.067Z,99440.81
2022-10-18T02:17:47.772Z,99447.91
2022-10-18T02:20:32.738Z,99440.56
2022-10-18T02:21:38.292Z,99444.78
2022-10-18T02:22:43.093Z,99442.97
2022-10-18T02:23:47.333Z,99443.44
2022-10-18T02:24:54.408Z,99447.16
2022-10-18T02:25:57.060Z,99444.78
2022-10-18T02:26:59.770Z,99448.38
2022-10-18T02:28:04.611Z,99443.94
2022-10-18T02:29:08.665Z,99443.97
2022-10-18T02:30:16.253Z,99456.00
2022-10-18T02:31:27.331Z,99452.59
2022-10-18T02:32:38.934Z,99450.25
2022-10-18T02:33:48.971Z,99447.19
2022-10-18T02:35:20.328Z,99448.81
2022-10-18T02:36:28.117Z,99452.22
2022-10-18T02:37:35.537Z,99452.53
2022-10-18T02:38:41.650Z,99459.16
2022-10-18T02:39:48.252Z,99449.91
2022-10-18T02:40:54.213Z,99449.91
2022-10-18T02:41:58.092Z,99448.91
2022-10-18T02:43:00.726Z,99450.25
2022-10-18T02:44:03.523Z,99455.50
2022-10-18T02:45:06.994Z,99450.75
2022-10-18T02:46:09.746Z,99452.09
2022-10-18T02:47:12.984Z,99449.19
2022-10-18T02:48:15.692Z,99447.59
2022-10-18T02:49:18.505Z,99438.66
2022-10-18T02:50:21.174Z,99444.16
2022-10-18T02:51:23.888Z,99441.53
2022-10-18T02:52:26.617Z,99442.78
2022-10-18T02:53:29.221Z,99438.03
2022-10-18T02:54:31.974Z,99448.78
2022-10-18T02:55:34.610Z,99444.09
2022-10-18T02:56:37.412Z,99451.19
2022-10-18T02:57:40.029Z,99442.31
2022-10-18T02:58:42.840Z,99444.41
2022-10-18T02:59:45.620Z,99455.38
2022-10-18T03:00:50.963Z,99449.63
2022-10-18T03:01:53.618Z,99450.69
2022-10-18T03:02:56.347Z,99442.56
2022-10-18T03:03:59.097Z,99438.38
2022-10-18T03:05:01.829Z,99437.53
2022-10-18T03:06:04.839Z,99453.59
2022-10-18T03:07:07.844Z,99454.13
2022-10-18T03:08:10.989Z,99456.00
2022-10-18T03:09:13.739Z,99451.81
2022-10-18T03:10:16.616Z,99459.09
2022-10-18T03:11:19.321Z,99459.63
2022-10-18T03:12:22.006Z,99462.56
2022-10-18T03:13:24.736Z,99452.81
2022-10-18T03:14:27.606Z,99452.28
2022-10-18T03:15:30.166Z,99455.75
2022-10-18T03:16:34.172Z,99458.38
2022-10-18T03:17:36.751Z,99457.31
2022-10-18T03:18:40.264Z,99457.38
2022-10-18T03:19:42.891Z,99460.25
2022-10-18T03:20:45.586Z,99462.34
2022-10-18T03:21:48.370Z,99459.50
2022-10-18T03:22:51.051Z,99462.91
2022-10-18T03:23:53.877Z,99462.94
2022-10-18T03:24:56.499Z,99462.97
2022-10-18T03:25:59.194Z,99466.06
2022-10-18T03:27:02.593Z,99461.63
2022-10-18T03:28:09.323Z,99464.78
2022-10-18T03:29:12.412Z,99463.47
2022-10-18T03:30:15.030Z,99460.06
2022-10-18T03:31:18.655Z,99459.03
2022-10-18T03:32:21.329Z,99463.25
2022-10-18T03:33:23.932Z,99461.41
2022-10-18T03:34:26.730Z,99461.66
2022-10-18T03:35:29.451Z,99460.09
2022-10-18T03:36:33.931Z,99461.94
2022-10-18T03:37:37.245Z,99466.41
2022-10-18T03:38:40.940Z,99465.09
2022-10-18T03:39:43.657Z,99463.78
2022-10-18T03:40:46.342Z,99460.37
2022-10-18T03:41:49.090Z,99463.00
2022-10-18T03:42:51.642Z,99467.19
2022-10-18T03:43:54.291Z,99470.84
2022-10-18T03:44:57.208Z,99466.13
2022-10-18T03:46:00.447Z,99465.34
2022-10-18T03:47:03.168Z,99468.25
2022-10-18T03:48:06.409Z,99469.78
2022-10-18T03:49:08.987Z,99474.78
2022-10-18T03:50:11.929Z,99470.84
2022-10-18T03:51:14.541Z,99475.06
2022-10-18T03:52:17.246Z,99483.19
2022-10-18T03:53:19.850Z,99476.09
2022-10-18T03:54:22.650Z,99476.09
2022-10-18T03:55:25.487Z,99478.19
2022-10-18T03:56:28.140Z,99480.84
2022-10-18T03:57:30.835Z,99483.72
2022-10-18T03:59:41.328Z,99476.59
2022-10-18T04:00:44.130Z,99476.59
2022-10-18T04:01:50.375Z,99476.31
2022-10-18T04:02:55.115Z,99471.34
2022-10-18T04:03:58.729Z,99470.56
2022-10-18T04:05:01.451Z,99470.56
2022-10-18T04:06:04.211Z,99474.22
2022-10-18T04:07:06.945Z,99468.16
2022-10-18T04:08:09.674Z,99466.87
2022-10-18T04:09:12.619Z,99465.06
2022-10-18T04:10:15.489Z,99466.34
2022-10-18T04:11:19.191Z,99470.81
2022-10-18T04:12:22.091Z,99469.97
2022-10-18T04:13:24.784Z,99459.50
2022-10-18T04:14:27.446Z,99468.41
2022-10-18T04:15:30.052Z,99463.72
2022-10-18T04:16:32.816Z,99462.66
2022-10-18T04:17:35.551Z,99471.28
2022-10-18T04:18:38.532Z,99459.97
2022-10-18T04:19:41.969Z,99459.69
2022-10-18T04:20:44.916Z,99459.50
2022-10-18T04:21:47.523Z,99457.31
2022-10-18T04:22:50.659Z,99457.38
2022-10-18T04:23:53.310Z,99456.34
2022-10-18T04:24:57.044Z,99453.13
2022-10-18T04:26:03.299Z,99456.75
2022-10-18T04:27:07.071Z,99454.44
2022-10-18T04:28:09.875Z,99457.53
2022-10-18T04:29:12.644Z,99446.22
2022-10-18T04:30:15.763Z,99451.41
2022-10-18T04:31:18.329Z,99454.16
2022-10-18T04:32:21.197Z,99452.31
2022-10-18T04:33:23.830Z,99455.47
2022-10-18T04:34:26.752Z,99455.38
2022-10-18T04:35:29.282Z,99454.09
2022-10-18T04:36:32.444Z,99450.16
2022-10-18T04:37:36.038Z,99448.62
2022-10-18T04:39:51.279Z,99453.38
2022-10-18T04:40:56.520Z,99447.63
2022-10-18T04:41:59.175Z,99445.75
2022-10-18T04:43:01.702Z,99446.47
2022-10-18T04:44:04.288Z,99438.59
2022-10-18T04:45:07.504Z,99442.25
2022-10-18T04:46:10.257Z,99445.63
2022-10-18T04:47:16.449Z,99441.47
2022-10-18T04:48:19.455Z,99435.66
2022-10-18T04:49:22.039Z,99436.69
2022-10-18T04:50:24.650Z,99434.12
2022-10-18T04:51:28.726Z,99434.91
2022-10-18T04:52:31.465Z,99434.59
2022-10-18T04:53:34.005Z,99428.87
2022-10-18T04:54:37.026Z,99428.63
2022-10-18T04:55:39.748Z,99433.88
2022-10-18T04:56:42.364Z,99435.69
2022-10-18T04:57:45.407Z,99425.12
2022-10-18T04:58:48.272Z,99424.91
2022-10-18T04:59:50.905Z,99427.28
2022-10-18T05:00:53.678Z,99428.34
2022-10-18T05:01:56.427Z,99428.03
2022-10-18T05:02:59.272Z,99424.09
2022-10-18T05:04:01.950Z,99427.53
2022-10-18T05:05:09.130Z,99429.41
2022-10-18T05:06:14.507Z,99428.59
2022-10-18T05:07:18.018Z,99428.59
2022-10-18T05:08:20.995Z,99423.16
2022-10-18T05:09:24.948Z,99429.22
2022-10-18T05:10:27.553Z,99421.28
2022-10-18T05:11:30.133Z,99421.03
2022-10-18T05:12:33.168Z,99424.47
2022-10-18T05:13:35.952Z,99417.66
2022-10-18T05:14:38.601Z,99421.87
2022-10-18T05:15:41.247Z,99418.94
2022-10-18T05:16:43.821Z,99424.19
2022-10-18T05:17:46.731Z,99417.66
2022-10-18T05:18:50.607Z,99427.63
2022-10-18T05:19:53.224Z,99436.50
2022-10-18T05:20:55.905Z,99429.34
2022-10-18T05:23:01.199Z,99423.09
2022-10-18T05:24:04.129Z,99431.50
2022-10-18T05:25:07.291Z,99423.94
2022-10-18T05:26:09.876Z,99427.41
2022-10-18T05:27:12.457Z,99431.63
2022-10-18T05:28:37.989Z,99431.63
2022-10-18T05:29:38.656Z,99430.03
2022-10-18T05:30:41.667Z,99427.94
2022-10-18T05:31:44.291Z,99432.47
2022-10-18T05:32:46.895Z,99435.59
2022-10-18T05:33:49.481Z,99431.63
2022-10-18T05:34:52.240Z,99431.84
2022-10-18T05:35:54.889Z,99431.09
2022-10-18T05:36:58.464Z,99425.62
2022-10-18T05:38:06.087Z,99421.94
2022-10-18T05:39:08.831Z,99421.91
2022-10-18T05:40:11.890Z,99422.94
2022-10-18T05:41:14.785Z,99425.59
2022-10-18T05:42:17.430Z,99429.00
2022-10-18T05:43:20.134Z,99423.22
2022-10-18T05:44:22.806Z,99421.34
2022-10-18T05:45:25.614Z,99421.13
2022-10-18T05:46:28.854Z,99423.72
2022-10-18T05:47:32.142Z,99429.72
2022-10-18T05:48:35.578Z,99425.06
2022-10-18T05:49:38.202Z,99429.19
2022-10-18T05:50:44.351Z,99429.25
2022-10-18T05:51:46.904Z,99423.00
2022-10-18T05:52:49.544Z,99431.94
2022-10-18T05:53:53.194Z,99429.63
2022-10-18T05:54:55.905Z,99430.34
2022-10-18T05:56:01.919Z,99432.00
2022-10-18T05:57:05.073Z,99435.69
2022-10-18T05:58:11.340Z,99428.31
2022-10-18T05:59:14.020Z,99427.50
2022-10-18T06:00:17.497Z,99429.31
2022-10-18T06:01:20.800Z,99424.59
2022-10-18T06:02:23.669Z,99436.91
2022-10-18T06:03:27.855Z,99428.22
2022-10-18T06:04:30.780Z,99420.16
2022-10-18T06:05:33.380Z,99429.41
2022-10-18T06:06:37.532Z,99427.00
2022-10-18T06:07:40.110Z,99428.09
2022-10-18T06:08:44.053Z,99432.53
2022-10-18T06:09:46.691Z,99431.75
2022-10-18T06:10:49.302Z,99437.50
2022-10-18T06:11:52.017Z,99433.34
2022-10-18T06:12:54.707Z,99435.44
2022-10-18T06:13:58.242Z,99433.06
2022-10-18T06:15:00.757Z,99433.59
2022-10-18T06:16:03.262Z,99434.91
2022-10-18T06:17:05.961Z,99434.41
2022-10-18T06:18:08.531Z,99439.38
2022-10-18T06:19:11.319Z,99437.03
2022-10-18T06:20:13.901Z,99439.63
2022-10-18T06:21:17.628Z,99440.69
2022-10-18T06:22:20.434Z,99440.69
2022-10-18T06:23:23.037Z,99451.97
2022-10-18T06:24:26.864Z,99447.53
2022-10-18T06:25:29.455Z,99445.94
2022-10-18T06:26:32.009Z,99447.00
2022-10-18T06:27:35.583Z,99437.56
2022-10-18T06:28:38.876Z,99447.50
2022-10-18T06:29:41.863Z,99442.03
2022-10-18T06:30:44.820Z,99445.41
2022-10-18T06:31:47.494Z,99445.69
2022-10-18T06:32:50.147Z,99444.34
2022-10-18T06:33:52.728Z,99445.13
2022-10-18T06:34:55.325Z,99445.66
2022-10-18T06:36:00.306Z,99444.63
2022-10-18T06:37:03.353Z,99444.63
2022-10-18T06:38:06.427Z,99453.28
2022-10-18T06:39:09.063Z,99448.81
2022-10-18T06:40:12.247Z,99444.87
2022-10-18T06:41:15.410Z,99449.03
2022-10-18T06:42:20.417Z,99449.03
2022-10-18T06:43:25.843Z,99444.53
2022-10-18T06:44:28.433Z,99443.75
2022-10-18T06:45:31.147Z,99450.84
2022-10-18T06:46:33.895Z,99446.63
2022-10-18T06:47:36.776Z,99448.94
2022-10-18T06:48:40.015Z,99445.53
2022-10-18T06:49:42.769Z,99452.59
2022-10-18T06:50:58.530Z,99454.16
2022-10-18T06:52:01.267Z,99451.84
2022-10-18T06:53:06.531Z,99454.38
2022-10-18T06:54:24.535Z,99448.56
2022-10-18T06:55:27.277Z,99457.69
2022-10-18T06:56:30.851Z,99451.56
2022-10-18T06:57:33.527Z,99456.50
2022-10-18T06:58:37.071Z,99459.53
2022-10-18T06:59:39.779Z,99458.97
2022-10-18T07:00:42.511Z,99452.87
2022-10-18T07:01:45.334Z,99458.28
2022-10-18T07:02:50.627Z,99462.41
2022-10-18T07:03:54.873Z,99464.72
2022-10-18T07:04:57.629Z,99460.19
2022-10-18T07:06:05.160Z,99459.03
2022-10-18T07:07:08.024Z,99464.41
2022-10-18T07:08:10.805Z,99463.28
2022-10-18T07:09:13.517Z,99461.34
2022-10-18T07:10:16.465Z,99458.59
2022-10-18T07:11:21.892Z,99457.47
2022-10-18T07:12:24.768Z,99458.81
2022-10-18T07:13:33.115Z,99461.47
2022-10-18T07:14:36.326Z,99447.69
2022-10-18T07:15:39.099Z,99453.88
2022-10-18T07:16:41.845Z,99451.47
2022-10-18T07:17:48.063Z,99449.47
2022-10-18T07:18:51.857Z,99450.69
2022-10-18T07:19:54.715Z,99451.87
2022-10-18T07:20:57.438Z,99452.72
2022-10-18T07:22:00.106Z,99447.13
2022-10-18T07:23:03.552Z,99448.41
2022-10-18T07:24:06.553Z,99447.47
2022-10-18T07:25:12.579Z,99437.25
2022-10-18T07:26:18.455Z,99437.97
2022-10-18T07:27:21.894Z,99435.84
2022-10-18T07:28:29.078Z,99433.59
2022-10-18T07:29:32.246Z,99443.88
2022-10-18T07:30:34.990Z,99439.00
2022-10-18T07:31:41.530Z,99446.44
2022-10-18T07:32:44.134Z,99443.81
2022-10-18T07:33:46.947Z,99436.09
2022-10-18T07:34:49.605Z,99439.91
2022-10-18T07:35:52.249Z,99444.59
2022-10-18T07:36:54.914Z,99439.16
2022-10-18T07:37:57.618Z,99437.84
2022-10-18T07:39:00.200Z,99435.94
2022-10-18T07:40:03.474Z,99437.97
2022-10-18T07:41:07.957Z,99429.91
2022-10-18T07:42:10.591Z,99436.34
2022-10-18T07:43:13.215Z,99442.22
2022-10-18T07:44:19.414Z,99432.25
2022-10-18T07:45:22.367Z,99436.22
2022-10-18T07:46:25.299Z,99429.19
2022-10-18T07:47:30.124Z,99436.53
2022-10-18T07:48:35.503Z,99435.38
2022-10-18T07:49:38.490Z,99438.13
2022-10-18T07:50:41.237Z,99430.37
2022-10-18T07:51:43.966Z,99430.75
2022-10-18T07:52:46.662Z,99437.53
2022-10-18T07:53:49.722Z,99431.16
2022-10-18T07:54:52.288Z,99432.59
2022-10-18T07:55:59.333Z,99420.28
2022-10-18T07:57:04.306Z,99430.72
2022-10-18T07:58:06.970Z,99429.16
2022-10-18T07:59:10.414Z,99433.97
2022-10-18T08:00:13.747Z,99431.94
2022-10-18T08:01:16.409Z,99436.50
2022-10-18T08:02:19.178Z,99433.22
2022-10-18T08:03:21.874Z,99427.91
2022-10-18T08:04:24.516Z,99425.25
2022-10-18T08:05:28.573Z,99426.03
2022-10-18T08:06:31.356Z,99426.19
2022-10-18T08:07:34.408Z,99427.28
2022-10-18T08:08:39.259Z,99423.84
2022-10-18T08:09:41.834Z,99426.81
2022-10-18T08:10:44.499Z,99420.84
2022-10-18T08:11:47.186Z,99420.41
2022-10-18T08:12:50.693Z,99422.44
2022-10-18T08:13:53.965Z,99411.28
2022-10-18T08:14:56.653Z,99410.25
2022-10-18T08:16:04.493Z,99419.25
2022-10-18T08:17:07.137Z,99410.22
2022-10-18T08:18:10.928Z,99413.38
2022-10-18T08:19:13.453Z,99419.03
2022-10-18T08:20:29.917Z,99411.63
2022-10-18T08:21:33.673Z,99407.78
2022-10-18T08:22:36.379Z,99416.97
2022-10-18T08:23:40.222Z,99412.31
2022-10-18T08:24:42.776Z,99416.16
2022-10-18T08:25:46.848Z,99412.19
2022-10-18T08:26:50.214Z,99412.78
2022-10-18T08:27:53.039Z,99409.09
2022-10-18T08:29:17.474Z,99403.44
2022-10-18T08:30:19.836Z,99408.84
2022-10-18T08:31:22.510Z,99415.81
2022-10-18T08:32:28.740Z,99408.88
2022-10-18T08:33:31.605Z,99411.03
2022-10-18T08:35:58.469Z,99400.91
2022-10-18T08:37:01.660Z,99400.25
2022-10-18T08:38:04.434Z,99401.53
2022-10-18T08:39:07.001Z,99402.03
2022-10-18T08:40:13.473Z,99400.78
2022-10-18T08:41:32.791Z,99396.53
2022-10-18T08:43:00.203Z,99397.72
2022-10-18T08:44:20.990Z,99391.09
2022-10-18T08:45:41.063Z,99391.84
2022-10-18T08:46:48.650Z,99389.44
2022-10-18T08:47:54.101Z,99397.19
2022-10-18T08:48:57.286Z,99402.88
2022-10-18T08:50:04.945Z,99400.59
2022-10-18T08:51:32.262Z,99396.56
2022-10-18T08:52:46.073Z,99386.97
2022-10-18T08:53:59.657Z,99388.00
2022-10-18T08:55:10.138Z,99385.47
2022-10-18T08:56:19.209Z,99382.41
2022-10-18T08:57:22.600Z,99386.00
2022-10-18T08:58:30.958Z,99379.38
2022-10-18T08:59:41.281Z,99383.72
2022-10-18T09:00:51.871Z,99379.91
2022-10-18T09:02:05.154Z,99378.47
2022-10-18T09:03:16.312Z,99381.34
2022-10-18T09:04:27.834Z,99377.16
2022-10-18T09:05:36.210Z,99373.16
2022-10-18T09:06:44.464Z,99383.91
2022-10-18T09:08:14.710Z,99371.72
2022-10-18T09:09:50.964Z,99384.69
2022-10-18T09:10:59.685Z,99363.72
2022-10-18T09:12:26.262Z,99365.66
2022-10-18T09:13:47.525Z,99360.72
2022-10-18T09:15:11.983Z,99366.56
2022-10-18T09:16:59.704Z,99362.72
2022-10-18T09:18:13.948Z,99365.03
2022-10-18T09:19:57.771Z,99357.88
2022-10-18T09:21:05.548Z,99366.41
2022-10-18T09:22:18.872Z,99362.31
2022-10-18T09:23:29.735Z,99359.19
2022-10-18T09:24:46.315Z,99354.56
2022-10-18T09:25:53.406Z,99350.31
2022-10-18T09:27:14.440Z,99358.97
2022-10-18T09:28:59.110Z,99354.97
2022-10-18T09:30:54.780Z,99351.25
2022-10-18T09:32:33.745Z,99351.53
2022-10-18T09:33:43.293Z,99349.19
2022-10-18T09:35:06.524Z,99347.56
2022-10-18T09:36:14.504Z,99346.50
2022-10-18T09:37:21.952Z,99344.56
2022-10-18T09:38:31.029Z,99341.78
2022-10-18T09:39:38.240Z,99346.50
2022-10-18T09:40:53.796Z,99348.03
2022-10-18T09:42:15.237Z,99340.34
2022-10-18T09:43:23.122Z,99351.94
2022-10-18T09:44:33.668Z,99347.59
2022-10-18T09:45:40.021Z,99339.78
2022-10-18T09:46:49.220Z,99334.69
2022-10-18T09:48:03.230Z,99331.88
2022-10-18T09:49:21.485Z,99331.66
2022-10-18T09:50:38.020Z,99328.56
2022-10-18T09:51:42.856Z,99335.66
2022-10-18T09:53:08.581Z,99334.97
2022-10-18T09:54:44.110Z,99327.69
2022-10-18T09:56:02.694Z,99330.37
2022-10-18T09:57:12.676Z,99325.28
2022-10-18T09:58:17.145Z,99323.66
2022-10-18T09:59:42.694Z,99328.72
2022-10-18T10:00:49.823Z,99324.25
2022-10-18T10:01:52.684Z,99332.38
2022-10-18T10:02:55.437Z,99332.00
2022-10-18T10:03:58.466Z,99323.44
2022-10-18T10:05:01.155Z,99323.03
2022-10-18T10:06:13.169Z,99332.88
2022-10-18T10:07:24.291Z,99322.16
2022-10-18T10:08:33.945Z,99317.88
2022-10-18T10:09:55.521Z,99313.75
2022-10-18T10:10:58.165Z,99313.31
2022-10-18T10:12:01.020Z,99319.38
2022-10-18T10:13:03.627Z,99313.53
2022-10-18T10:14:23.244Z,99305.59
2022-10-18T10:15:31.235Z,99304.94
2022-10-18T10:16:56.925Z,99303.88
2022-10-18T10:18:03.793Z,99291.25
2022-10-18T10:19:06.910Z,99310.50
2022-10-18T10:20:21.919Z,99301.41
2022-10-18T10:22:40.686Z,99314.87
2022-10-18T10:23:54.772Z,99304.59
2022-10-18T10:25:03.527Z,99318.09
2022-10-18T10:26:23.577Z,99306.84
2022-10-18T10:27:43.658Z,99306.87
2022-10-18T10:28:49.151Z,99306.44
2022-10-18T10:29:56.780Z,99305.78
2022-10-18T10:31:27.283Z,99291.41
2022-10-18T10:32:43.132Z,99294.09
2022-10-18T10:33:47.789Z,99294.63
2022-10-18T10:34:51.084Z,99281.03
2022-10-18T10:35:59.910Z,99292.87
2022-10-18T10:37:05.330Z,99288.69
2022-10-18T10:38:22.384Z,99282.22
2022-10-18T10:39:25.227Z,99276.87
2022-10-18T10:40:34.191Z,99284.16
2022-10-18T10:41:38.425Z,99276.78
2022-10-18T10:43:32.869Z,99281.41
2022-10-18T10:44:37.026Z,99275.19
2022-10-18T10:46:15.463Z,99273.59
2022-10-18T10:47:37.745Z,99270.75
2022-10-18T10:49:08.406Z,99270.56
2022-10-18T10:50:25.658Z,99278.50
2022-10-18T10:51:31.696Z,99274.34
2022-10-18T10:52:34.524Z,99269.69
2022-10-18T10:53:42.709Z,99276.34
2022-10-18T10:54:51.138Z,99271.00
2022-10-18T10:55:56.853Z,99265.56
2022-10-18T10:57:12.781Z,99267.28
2022-10-18T10:58:18.495Z,99265.94
2022-10-18T10:59:22.979Z,99265.25
2022-10-18T11:00:44.626Z,99263.59
2022-10-18T11:01:50.208Z,99264.63
2022-10-18T11:03:34.311Z,99261.41
2022-10-18T11:04:38.822Z,99268.63
2022-10-18T11:05:47.296Z,99259.16
2022-10-18T11:07:16.798Z,99251.19
2022-10-18T11:08:36.028Z,99252.34
2022-10-18T11:09:50.914Z,99251.66
2022-10-18T11:11:03.318Z,99240.81
2022-10-18T11:12:17.603Z,99254.66
2022-10-18T11:13:28.600Z,99249.38
2022-10-18T11:14:39.188Z,99247.06
2022-10-18T11:15:47.775Z,99241.88
2022-10-18T11:17:15.318Z,99242.06
2022-10-18T11:18:24.836Z,99236.66
2022-10-18T11:19:57.746Z,99239.84
2022-10-18T11:21:18.804Z,99230.94
2022-10-18T11:22:26.368Z,99244.19
2022-10-18T11:23:33.596Z,99237.47
2022-10-18T11:24:36.531Z,99237.88
2022-10-18T11:25:42.046Z,99241.03
2022-10-18T11:27:01.769Z,99233.03
2022-10-18T11:28:10.732Z,99230.56
2022-10-18T11:29:15.968Z,99220.91
2022-10-18T11:30:44.214Z,99232.25
2022-10-18T11:31:56.114Z,99223.19
2022-10-18T11:33:56.398Z,99219.62
2022-10-18T11:35:22.752Z,99218.59
2022-10-18T11:36:36.576Z,99217.19
2022-10-18T11:38:19.301Z,99212.31
2022-10-18T11:39:27.784Z,99210.34
2022-10-18T11:40:33.647Z,99207.38
2022-10-18T11:41:47.676Z,99212.47
2022-10-18T11:43:01.887Z,99202.31
2022-10-18T11:44:16.485Z,99205.12
2022-10-18T11:45:47.066Z,99192.09
2022-10-18T11:46:49.526Z,99196.44
2022-10-18T11:48:08.505Z,99193.03
2022-10-18T11:49:17.931Z,99190.97
2022-10-18T11:50:57.631Z,99197.56
2022-10-18T11:52:13.713Z,99197.16
2022-10-18T11:53:48.387Z,99189.81
2022-10-18T11:55:03.435Z,99189.09
2022-10-18T11:56:37.431Z,99196.59
2022-10-18T11:58:08.132Z,99195.03
2022-10-18T11:59:29.065Z,99190.66
2022-10-18T12:01:06.831Z,99182.62
2022-10-18T12:02:40.253Z,99191.34
2022-10-18T12:03:42.861Z,99181.34
2022-10-18T12:05:05.135Z,99174.69
2022-10-18T12:06:20.954Z,99178.06
2022-10-18T12:07:27.778Z,99168.94
2022-10-18T12:08:40.112Z,99165.88
2022-10-18T12:09:46.002Z,99170.00
2022-10-18T12:11:04.185Z,99164.59
2022-10-18T12:12:30.463Z,99165.38
2022-10-18T12:13:39.661Z,99160.81
2022-10-18T12:15:07.379Z,99162.00
2022-10-18T12:16:11.092Z,99169.13
2022-10-18T12:19:02.773Z,99150.53
2022-10-18T12:20:16.272Z,99159.50
2022-10-18T12:21:25.495Z,99159.62
2022-10-18T12:22:50.306Z,99150.34
2022-10-18T12:23:56.684Z,99149.97
2022-10-18T12:24:59.916Z,99151.00
2022-10-18T12:26:06.196Z,99141.78
2022-10-18T12:27:14.060Z,99141.34
2022-10-18T12:28:35.115Z,99144.19
2022-10-18T12:29:50.678Z,99139.63
2022-10-18T12:31:02.519Z,99138.69
2022-10-18T12:32:14.728Z,99134.44
2022-10-18T12:33:28.689Z,99128.94
2022-10-18T12:34:49.341Z,99130.66
2022-10-18T12:36:13.442Z,99125.56
2022-10-18T12:37:43.377Z,99128.50
2022-10-18T12:38:50.463Z,99128.38
2022-10-18T12:40:10.506Z,99119.66
2022-10-18T12:41:26.827Z,99122.59
2022-10-18T12:42:32.497Z,99126.72
2022-10-18T12:43:38.672Z,99121.19
2022-10-18T12:44:41.308Z,99112.09
2022-10-18T12:46:12.173Z,99116.28
2022-10-18T12:47:25.526Z,99114.19
2022-10-18T12:48:34.775Z,99107.22
2022-10-18T12:49:41.457Z,99106.56
2022-10-18T12:51:04.250Z,99107.53
2022-10-18T12:52:21.273Z,99105.09
2022-10-18T12:53:28.212Z,99104.44
2022-10-18T12:54:34.701Z,99108.44
2022-10-18T12:56:51.149Z,99096.78
2022-10-18T12:57:53.965Z,99100.72
2022-10-18T12:59:15.583Z,99101.03
2022-10-18T13:00:30.446Z,99092.34
2022-10-18T13:01:51.195Z,99091.94
2022-10-18T13:03:12.185Z,99095.31
2022-10-18T13:04:33.719Z,99088.72
2022-10-18T13:05:53.291Z,99081.38
2022-10-18T13:06:59.849Z,99095.09
2022-10-18T13:08:31.868Z,99088.00
2022-10-18T13:09:37.939Z,99082.78
2022-10-18T13:10:41.924Z,99090.28
2022-10-18T13:11:45.191Z,99080.13
2022-10-18T13:13:38.727Z,99083.00
2022-10-18T13:15:12.486Z,99085.75
2022-10-18T13:16:45.950Z,99072.47
2022-10-18T13:17:55.413Z,99078.59
2022-10-18T13:19:19.402Z,99079.81
2022-10-18T13:20:42.342Z,99077.22
2022-10-18T13:22:00.205Z,99086.53
2022-10-18T13:23:37.125Z,99076.13
2022-10-18T13:25:02.485Z,99086.59
2022-10-18T13:26:11.239Z,99078.63
2022-10-18T13:27:35.889Z,99074.50
2022-10-18T13:29:10.610Z,99081.47
2022-10-18T13:30:32.491Z,99076.22
2022-10-18T13:31:52.901Z,99075.41
2022-10-18T13:33:13.989Z,99082.53
2022-10-18T13:34:25.211Z,99074.16
2022-10-18T13:35:49.628Z,99076.22
2022-10-18T13:37:10.512Z,99083.50